Time;durP1;ratioP1;P1;durP2;ratioP2;P2;SDS_P1;SDS_P2;PMS_P1;PMS_P2;Temp;Humidity;BMP_temperature;BMP_pressure;BME280_temperature;BME280_humidity;BME280_pressure;Samples;Min_cycle;Max_cycle;Signal;HPM_P1;HPM_P2
2023/12/01 00:00:12;;;;;;;100.50;52.20;;;;;;;-128.00;-1.00;-1.00;103076;1253;1005162;-78
2023/12/01 00:02:58;;;;;;;120.00;54.00;;;;;;;-128.00;-1.00;-1.00;103043;1253;1061125;-78
2023/12/01 00:05:25;;;;;;;107.30;52.60;;;;;;;-128.00;-1.00;-1.00;103125;1255;1003979;-78
2023/12/01 00:07:51;;;;;;;108.50;48.50;;;;;;;-128.00;-1.00;-1.00;103050;1253;1004278;-78
2023/12/01 00:10:18;;;;;;;117.70;57.80;;;;;;;-128.00;-1.00;-1.00;103095;1253;1004347;-78
2023/12/01 00:12:44;;;;;;;103.40;52.60;;;;;;;-128.00;-1.00;-1.00;103075;1253;1004574;-78
2023/12/01 00:15:11;;;;;;;99.70;49.70;;;;;;;-128.00;-1.00;-1.00;103162;1253;1003627;-78
2023/12/01 00:17:38;;;;;;;101.40;47.80;;;;;;;-128.00;-1.00;-1.00;103084;1253;1004319;-78
2023/12/01 00:20:05;;;;;;;97.30;46.50;;;;;;;-128.00;-1.00;-1.00;103154;1253;1004303;-78
2023/12/01 00:22:32;;;;;;;96.40;47.10;;;;;;;-128.00;-1.00;-1.00;103161;1253;1005517;-78
2023/12/01 00:24:58;;;;;;;98.10;49.00;;;;;;;-128.00;-1.00;-1.00;103065;1253;1004384;-78
2023/12/01 00:27:25;;;;;;;96.40;47.90;;;;;;;-128.00;-1.00;-1.00;103096;1253;1003948;-78
2023/12/01 00:29:52;;;;;;;87.90;45.20;;;;;;;-128.00;-1.00;-1.00;103095;1253;1003483;-78
2023/12/01 00:32:18;;;;;;;77.40;40.50;;;;;;;-128.00;-1.00;-1.00;103044;1253;1004214;-78
2023/12/01 00:34:45;;;;;;;82.80;43.00;;;;;;;-128.00;-1.00;-1.00;103113;1253;1003674;-78
2023/12/01 00:37:16;;;;;;;78.70;42.30;;;;;;;-128.00;-1.00;-1.00;103088;1253;1004712;-78
2023/12/01 00:39:42;;;;;;;85.00;42.60;;;;;;;-128.00;-1.00;-1.00;103096;1253;1058765;-78
2023/12/01 00:42:09;;;;;;;77.10;39.60;;;;;;;-128.00;-1.00;-1.00;104124;1253;1004277;-78
2023/12/01 00:44:36;;;;;;;89.90;45.90;;;;;;;-128.00;-1.00;-1.00;103966;1253;1004278;-78
2023/12/01 00:47:03;;;;;;;76.40;42.50;;;;;;;-128.00;-1.00;-1.00;103115;1253;1005246;-78
2023/12/01 00:49:31;;;;;;;74.80;38.60;;;;;;;-128.00;-1.00;-1.00;103038;1257;1004369;-78
2023/12/01 00:51:58;;;;;;;48.90;27.80;;;;;;;-128.00;-1.00;-1.00;103025;1253;1004108;-78
2023/12/01 00:54:24;;;;;;;76.70;38.10;;;;;;;-128.00;-1.00;-1.00;103044;1253;1003717;-78
2023/12/01 00:56:51;;;;;;;66.40;34.30;;;;;;;-128.00;-1.00;-1.00;103036;1253;1005426;-79
2023/12/01 00:59:17;;;;;;;67.70;33.90;;;;;;;-128.00;-1.00;-1.00;103002;1253;1004094;-78
2023/12/01 01:01:44;;;;;;;69.50;37.00;;;;;;;-128.00;-1.00;-1.00;103041;1253;1004939;-78
2023/12/01 01:04:11;;;;;;;75.60;36.40;;;;;;;-128.00;-1.00;-1.00;103017;1253;1004226;-78
2023/12/01 01:06:37;;;;;;;74.80;38.40;;;;;;;-128.00;-1.00;-1.00;103107;1253;1005424;-78
2023/12/01 01:09:04;;;;;;;67.70;34.40;;;;;;;-128.00;-1.00;-1.00;103048;1253;1004050;-78
2023/12/01 01:11:31;;;;;;;70.20;35.40;;;;;;;-128.00;-1.00;-1.00;103064;1253;1004895;-78
2023/12/01 01:13:59;;;;;;;76.60;40.20;;;;;;;-128.00;-1.00;-1.00;103098;1257;1004326;-78
2023/12/01 01:16:26;;;;;;;72.80;37.50;;;;;;;-128.00;-1.00;-1.00;103114;1253;1004813;-78
2023/12/01 01:18:52;;;;;;;77.60;39.60;;;;;;;-128.00;-1.00;-1.00;103074;1258;1004451;-78
2023/12/01 01:21:19;;;;;;;87.50;42.60;;;;;;;-128.00;-1.00;-1.00;103112;1253;1003607;-78
2023/12/01 01:23:46;;;;;;;87.40;42.70;;;;;;;-128.00;-1.00;-1.00;103061;1253;1005456;-77
2023/12/01 01:26:14;;;;;;;86.30;43.80;;;;;;;-128.00;-1.00;-1.00;103077;1253;1005317;-78
2023/12/01 01:28:40;;;;;;;86.80;43.40;;;;;;;-128.00;-1.00;-1.00;103335;1253;1005045;-78
2023/12/01 01:31:07;;;;;;;81.00;41.70;;;;;;;-128.00;-1.00;-1.00;103050;1253;1004172;-78
2023/12/01 01:33:34;;;;;;;82.50;40.60;;;;;;;-128.00;-1.00;-1.00;103051;1253;1004015;-78
2023/12/01 01:36:01;;;;;;;87.00;45.40;;;;;;;-128.00;-1.00;-1.00;103133;1253;1004037;-78
2023/12/01 01:38:29;;;;;;;77.10;40.60;;;;;;;-128.00;-1.00;-1.00;103670;1253;1005600;-78
2023/12/01 01:40:56;;;;;;;83.70;42.20;;;;;;;-128.00;-1.00;-1.00;105585;1253;1004395;-78
2023/12/01 01:43:23;;;;;;;80.80;41.00;;;;;;;-128.00;-1.00;-1.00;105624;1253;1004371;-78
2023/12/01 01:46:04;;;;;;;75.40;40.30;;;;;;;-128.00;-1.00;-1.00;105601;1253;1003933;-78
2023/12/01 01:48:32;;;;;;;71.90;37.60;;;;;;;-128.00;-1.00;-1.00;105443;1253;1048205;-78
2023/12/01 01:50:59;;;;;;;70.50;37.90;;;;;;;-128.00;-1.00;-1.00;104612;1253;1004418;-78
2023/12/01 01:53:27;;;;;;;71.00;37.20;;;;;;;-128.00;-1.00;-1.00;103081;1253;1004362;-78
2023/12/01 01:55:57;;;;;;;66.20;36.70;;;;;;;-128.00;-1.00;-1.00;103069;1253;1004741;-78
2023/12/01 01:58:27;;;;;;;72.00;36.40;;;;;;;-128.00;-1.00;-1.00;102879;1253;1046175;-78
2023/12/01 02:00:53;;;;;;;69.80;34.60;;;;;;;-128.00;-1.00;-1.00;103019;1253;1046198;-77
2023/12/01 02:03:21;;;;;;;66.30;32.70;;;;;;;-128.00;-1.00;-1.00;103002;1253;1004570;-78
2023/12/01 02:05:48;;;;;;;69.40;34.90;;;;;;;-128.00;-1.00;-1.00;105444;1253;1004194;-78
2023/12/01 02:08:28;;;;;;;70.20;33.80;;;;;;;-128.00;-1.00;-1.00;105397;1253;1004379;-78
2023/12/01 02:10:56;;;;;;;63.00;33.00;;;;;;;-128.00;-1.00;-1.00;105622;1253;1045420;-78
2023/12/01 02:13:23;;;;;;;69.60;34.20;;;;;;;-128.00;-1.00;-1.00;104341;1253;1046182;-78
2023/12/01 02:15:51;;;;;;;71.80;33.40;;;;;;;-128.00;-1.00;-1.00;103160;1253;1004442;-78
2023/12/01 02:18:30;;;;;;;66.60;32.30;;;;;;;-128.00;-1.00;-1.00;103125;1253;1005134;-78
2023/12/01 02:20:56;;;;;;;;;;;;;;;-128.00;-1.00;-1.00;105403;1253;1058004;-78
2023/12/01 02:23:23;;;;;;;73.80;33.30;;;;;;;-128.00;-1.00;-1.00;105610;1253;1004073;-78
2023/12/01 02:25:50;;;;;;;89.30;42.20;;;;;;;-128.00;-1.00;-1.00;105647;1253;1006307;-78
2023/12/01 02:28:16;;;;;;;85.10;41.10;;;;;;;-128.00;-1.00;-1.00;105615;1257;1004062;-77
2023/12/01 02:30:52;;;;;;;74.00;37.40;;;;;;;-128.00;-1.00;-1.00;105594;1253;1004176;-78
2023/12/01 02:33:19;;;;;;;77.80;40.70;;;;;;;-128.00;-1.00;-1.00;105612;1256;1058832;-78
2023/12/01 02:35:50;;;;;;;95.70;46.80;;;;;;;-128.00;-1.00;-1.00;105408;1253;1005207;-78
2023/12/01 02:38:17;;;;;;;87.00;44.30;;;;;;;-128.00;-1.00;-1.00;105582;1253;1046686;-78
2023/12/01 02:40:44;;;;;;;84.40;43.30;;;;;;;-128.00;-1.00;-1.00;105636;1253;1004820;-78
2023/12/01 02:43:13;;;;;;;85.60;43.70;;;;;;;-128.00;-1.00;-1.00;105645;1253;1005600;-78
2023/12/01 02:45:40;;;;;;;87.00;43.80;;;;;;;-128.00;-1.00;-1.00;105612;1253;1058920;-78
2023/12/01 02:48:07;;;;;;;82.90;43.10;;;;;;;-128.00;-1.00;-1.00;104680;1253;1005021;-78
2023/12/01 02:50:34;;;;;;;71.80;37.70;;;;;;;-128.00;-1.00;-1.00;103078;1253;1004302;-78
2023/12/01 02:53:01;;;;;;;66.80;36.60;;;;;;;-128.00;-1.00;-1.00;102957;1253;1007416;-78
2023/12/01 02:55:27;;;;;;;75.40;38.40;;;;;;;-128.00;-1.00;-1.00;103089;1259;1004626;-78
2023/12/01 02:57:57;;;;;;;72.60;38.90;;;;;;;-128.00;-1.00;-1.00;103058;1253;1004617;-78
2023/12/01 03:00:24;;;;;;;69.40;34.70;;;;;;;-128.00;-1.00;-1.00;103104;1253;1046890;-78
2023/12/01 03:02:51;;;;;;;70.50;35.70;;;;;;;-128.00;-1.00;-1.00;103041;1253;1003900;-78
2023/12/01 03:05:19;;;;;;;69.40;34.40;;;;;;;-128.00;-1.00;-1.00;103017;1253;1004557;-78
2023/12/01 03:07:45;;;;;;;75.00;35.00;;;;;;;-128.00;-1.00;-1.00;103059;1253;1004476;-79
2023/12/01 03:10:12;;;;;;;98.50;46.20;;;;;;;-128.00;-1.00;-1.00;103082;1253;1004977;-78
2023/12/01 03:12:40;;;;;;;82.90;45.00;;;;;;;-128.00;-1.00;-1.00;103052;1253;1004004;-78
2023/12/01 03:15:11;;;;;;;85.30;43.90;;;;;;;-128.00;-1.00;-1.00;103067;1253;1003899;-78
2023/12/01 03:17:38;;;;;;;79.70;41.20;;;;;;;-128.00;-1.00;-1.00;103015;1253;1063526;-78
2023/12/01 03:20:15;;;;;;;79.80;38.90;;;;;;;-128.00;-1.00;-1.00;103027;1253;1004606;-78
2023/12/01 03:22:43;;;;;;;77.70;37.20;;;;;;;-128.00;-1.00;-1.00;103160;1255;1060414;-78
2023/12/01 03:25:11;;;;;;;58.60;33.10;;;;;;;-128.00;-1.00;-1.00;103327;1252;1004915;-78
2023/12/01 03:27:41;;;;;;;74.70;41.60;;;;;;;-128.00;-1.00;-1.00;105260;1253;1003806;-78
2023/12/01 03:30:15;;;;;;;77.00;39.70;;;;;;;-128.00;-1.00;-1.00;105661;1253;1061195;-78
2023/12/01 03:32:45;;;;;;;67.40;35.00;;;;;;;-128.00;-1.00;-1.00;105687;1253;1058938;-78
2023/12/01 03:35:15;;;;;;;73.50;37.20;;;;;;;-128.00;-1.00;-1.00;105361;1254;1058711;-78
2023/12/01 03:37:42;;;;;;;70.20;35.90;;;;;;;-128.00;-1.00;-1.00;105453;1255;1046468;-78
2023/12/01 03:40:15;;;;;;;71.20;36.30;;;;;;;-128.00;-1.00;-1.00;105428;1254;1003928;-78
2023/12/01 03:42:42;;;;;;;56.70;31.90;;;;;;;-128.00;-1.00;-1.00;105457;1254;1062672;-78
2023/12/01 03:45:12;;;;;;;62.10;29.80;;;;;;;-128.00;-1.00;-1.00;105454;1255;1003930;-78
2023/12/01 03:47:39;;;;;;;65.70;33.00;;;;;;;-128.00;-1.00;-1.00;105358;1254;1059047;-78
2023/12/01 03:50:11;;;;;;;63.70;29.70;;;;;;;-128.00;-1.00;-1.00;105443;1254;1004177;-78
2023/12/01 03:52:42;;;;;;;60.70;31.90;;;;;;;-128.00;-1.00;-1.00;105475;1253;1047302;-78
2023/12/01 03:55:09;;;;;;;60.40;32.70;;;;;;;-128.00;-1.00;-1.00;105634;1254;1063216;-78
2023/12/01 03:57:37;;;;;;;67.10;34.30;;;;;;;-128.00;-1.00;-1.00;105378;1253;1004024;-78
2023/12/01 04:00:08;;;;;;;65.40;35.30;;;;;;;-128.00;-1.00;-1.00;105601;1253;1004506;-78
2023/12/01 04:02:38;;;;;;;70.50;35.50;;;;;;;-128.00;-1.00;-1.00;105600;1254;1046999;-78
2023/12/01 04:05:07;;;;;;;77.20;38.10;;;;;;;-128.00;-1.00;-1.00;105611;1253;1046000;-78
2023/12/01 04:07:34;;;;;;;89.50;43.70;;;;;;;-128.00;-1.00;-1.00;105610;1253;1004670;-78
2023/12/01 04:10:01;;;;;;;86.50;45.80;;;;;;;-128.00;-1.00;-1.00;105641;1253;1003865;-78
2023/12/01 04:12:30;;;;;;;80.90;43.90;;;;;;;-128.00;-1.00;-1.00;105597;1253;1059210;-78
2023/12/01 04:14:58;;;;;;;84.00;43.70;;;;;;;-128.00;-1.00;-1.00;105580;1253;1004214;-78
2023/12/01 04:17:24;;;;;;;82.30;43.50;;;;;;;-128.00;-1.00;-1.00;105650;1253;1004516;-78
2023/12/01 04:19:51;;;;;;;85.70;43.50;;;;;;;-128.00;-1.00;-1.00;105651;1253;1003751;-77
2023/12/01 04:22:17;;;;;;;81.50;42.30;;;;;;;-128.00;-1.00;-1.00;105587;1253;1004793;-78
2023/12/01 04:24:44;;;;;;;77.30;39.50;;;;;;;-128.00;-1.00;-1.00;105611;1253;1004412;-78
2023/12/01 04:27:10;;;;;;;74.00;37.90;;;;;;;-128.00;-1.00;-1.00;105377;1253;1004698;-78
2023/12/01 04:29:38;;;;;;;68.80;38.20;;;;;;;-128.00;-1.00;-1.00;104747;1257;1004728;-78
2023/12/01 04:32:05;;;;;;;71.10;40.40;;;;;;;-128.00;-1.00;-1.00;103158;1253;1004788;-78
2023/12/01 04:34:32;;;;;;;72.80;38.10;;;;;;;-128.00;-1.00;-1.00;103122;1254;1005278;-78
2023/12/01 04:36:59;;;;;;;82.20;42.00;;;;;;;-128.00;-1.00;-1.00;103080;1253;1005906;-78
2023/12/01 04:39:26;;;;;;;87.50;45.30;;;;;;;-128.00;-1.00;-1.00;103055;1253;1003883;-78
2023/12/01 04:41:52;;;;;;;84.70;43.50;;;;;;;-128.00;-1.00;-1.00;103070;1253;1004930;-78
2023/12/01 04:44:19;;;;;;;92.30;46.50;;;;;;;-128.00;-1.00;-1.00;103126;1253;1004851;-77
2023/12/01 04:46:45;;;;;;;81.50;42.40;;;;;;;-128.00;-1.00;-1.00;103088;1253;1005085;-78
2023/12/01 04:49:12;;;;;;;78.50;44.70;;;;;;;-128.00;-1.00;-1.00;104802;1253;1004156;-78
2023/12/01 04:51:39;;;;;;;79.00;43.00;;;;;;;-128.00;-1.00;-1.00;105605;1253;1003794;-78
2023/12/01 04:54:06;;;;;;;83.60;43.50;;;;;;;-128.00;-1.00;-1.00;105634;1253;1003805;-78
2023/12/01 04:56:33;;;;;;;82.30;42.90;;;;;;;-128.00;-1.00;-1.00;105632;1253;1004539;-78
2023/12/01 04:59:00;;;;;;;80.10;44.00;;;;;;;-128.00;-1.00;-1.00;105395;1253;1003876;-78
2023/12/01 05:01:27;;;;;;;85.60;46.00;;;;;;;-128.00;-1.00;-1.00;105616;1253;1004406;-78
2023/12/01 05:03:54;;;;;;;82.20;41.80;;;;;;;-128.00;-1.00;-1.00;105349;1253;1004804;-78
2023/12/01 05:06:21;;;;;;;82.10;43.10;;;;;;;-128.00;-1.00;-1.00;105642;1253;1004414;-78
2023/12/01 05:08:47;;;;;;;82.30;44.00;;;;;;;-128.00;-1.00;-1.00;105652;1254;1004851;-78
2023/12/01 05:11:14;;;;;;;73.60;40.90;;;;;;;-128.00;-1.00;-1.00;105618;1255;1003424;-78
2023/12/01 05:13:41;;;;;;;79.40;40.20;;;;;;;-128.00;-1.00;-1.00;105623;1253;1004337;-78
2023/12/01 05:16:08;;;;;;;72.00;40.30;;;;;;;-128.00;-1.00;-1.00;105646;1253;1004622;-78
2023/12/01 05:18:34;;;;;;;78.30;41.30;;;;;;;-128.00;-1.00;-1.00;105437;1253;1004458;-78
2023/12/01 05:21:01;;;;;;;76.80;38.60;;;;;;;-128.00;-1.00;-1.00;105172;1254;1003255;-78
2023/12/01 05:23:27;;;;;;;71.10;37.20;;;;;;;-128.00;-1.00;-1.00;103031;1257;1004998;-78
2023/12/01 05:25:54;;;;;;;82.10;41.40;;;;;;;-128.00;-1.00;-1.00;103276;1253;1004494;-78
2023/12/01 05:28:20;;;;;;;86.10;44.10;;;;;;;-128.00;-1.00;-1.00;105592;1254;1004649;-78
2023/12/01 05:30:47;;;;;;;74.60;39.30;;;;;;;-128.00;-1.00;-1.00;105644;1254;1005173;-78
2023/12/01 05:33:14;;;;;;;92.40;50.80;;;;;;;-128.00;-1.00;-1.00;105589;1257;1004284;-78
2023/12/01 05:35:42;;;;;;;101.30;56.60;;;;;;;-128.00;-1.00;-1.00;105459;1255;1005760;-78
2023/12/01 05:38:09;;;;;;;91.90;52.60;;;;;;;-128.00;-1.00;-1.00;103148;1258;1059168;-78
2023/12/01 05:40:37;;;;;;;88.90;47.00;;;;;;;-128.00;-1.00;-1.00;103096;1256;1004335;-78
2023/12/01 05:43:06;;;;;;;97.20;50.60;;;;;;;-128.00;-1.00;-1.00;103083;1256;1004359;-78
2023/12/01 05:45:33;;;;;;;99.80;49.90;;;;;;;-128.00;-1.00;-1.00;103045;1254;1063101;-78
2023/12/01 05:48:00;;;;;;;100.30;52.50;;;;;;;-128.00;-1.00;-1.00;102927;1253;1004302;-78
2023/12/01 05:50:28;;;;;;;96.40;54.20;;;;;;;-128.00;-1.00;-1.00;103118;1254;1004992;-78
2023/12/01 05:52:56;;;;;;;110.50;57.80;;;;;;;-128.00;-1.00;-1.00;105561;1254;1004091;-78
2023/12/01 05:55:24;;;;;;;113.00;58.10;;;;;;;-128.00;-1.00;-1.00;104384;1254;1003518;-78
2023/12/01 05:57:55;;;;;;;114.40;58.90;;;;;;;-128.00;-1.00;-1.00;103046;1256;1006357;-78
2023/12/01 06:00:23;;;;;;;117.90;58.60;;;;;;;-128.00;-1.00;-1.00;103355;1254;1060215;-78
2023/12/01 06:02:51;;;;;;;111.70;58.20;;;;;;;-128.00;-1.00;-1.00;105603;1255;1004202;-78
2023/12/01 06:05:19;;;;;;;106.00;59.10;;;;;;;-128.00;-1.00;-1.00;105607;1254;1003644;-78
2023/12/01 06:07:54;;;;;;;102.80;55.40;;;;;;;-128.00;-1.00;-1.00;105679;1254;1004029;-78
2023/12/01 06:10:21;;;;;;;103.80;52.00;;;;;;;-128.00;-1.00;-1.00;105629;1254;1063174;-78
2023/12/01 06:12:48;;;;;;;111.10;55.50;;;;;;;-128.00;-1.00;-1.00;105634;1254;1004232;-78
2023/12/01 06:15:16;;;;;;;118.00;57.50;;;;;;;-128.00;-1.00;-1.00;105650;1256;1005110;-78
2023/12/01 06:17:45;;;;;;;113.50;54.40;;;;;;;-128.00;-1.00;-1.00;105580;1255;1045630;-78
2023/12/01 06:20:19;;;;;;;118.20;62.40;;;;;;;-128.00;-1.00;-1.00;105606;1257;1003617;-78
2023/12/01 06:22:50;;;;;;;97.80;51.80;;;;;;;-128.00;-1.00;-1.00;105496;1255;1063144;-78
2023/12/01 06:25:20;;;;;;;101.50;50.70;;;;;;;-128.00;-1.00;-1.00;103130;1256;1058112;-78
2023/12/01 06:27:47;;;;;;;104.60;50.90;;;;;;;-128.00;-1.00;-1.00;103040;1255;1061530;-78
2023/12/01 06:30:14;;;;;;;101.00;51.30;;;;;;;-128.00;-1.00;-1.00;103108;1258;1004433;-78
2023/12/01 06:32:41;;;;;;;103.80;51.70;;;;;;;-128.00;-1.00;-1.00;105470;1253;1174370;-78
2023/12/01 06:35:10;;;;;;;118.40;56.80;;;;;;;-128.00;-1.00;-1.00;105589;1254;1004202;-78
2023/12/01 06:37:40;;;;;;;100.60;51.40;;;;;;;-128.00;-1.00;-1.00;105557;1254;1003786;-78
2023/12/01 06:40:15;;;;;;;100.40;52.90;;;;;;;-128.00;-1.00;-1.00;105499;1253;1058735;-78
2023/12/01 06:42:45;;;;;;;98.50;48.50;;;;;;;-128.00;-1.00;-1.00;105540;1253;1044720;-78
2023/12/01 06:45:13;;;;;;;100.80;49.90;;;;;;;-128.00;-1.00;-1.00;105355;1256;1047259;-78
2023/12/01 06:47:41;;;;;;;87.10;47.50;;;;;;;-128.00;-1.00;-1.00;105501;1254;1004761;-78
2023/12/01 06:50:11;;;;;;;106.60;51.30;;;;;;;-128.00;-1.00;-1.00;105518;1254;1004466;-78
2023/12/01 06:52:38;;;;;;;99.10;51.90;;;;;;;-128.00;-1.00;-1.00;103352;1254;1059348;-78
2023/12/01 06:55:07;;;;;;;105.40;51.30;;;;;;;-128.00;-1.00;-1.00;103159;1258;1004375;-78
2023/12/01 06:57:38;;;;;;;118.20;60.60;;;;;;;-128.00;-1.00;-1.00;105628;1254;1048010;-78
2023/12/01 07:00:09;;;;;;;111.60;53.30;;;;;;;-128.00;-1.00;-1.00;105588;1254;1061543;-78
2023/12/01 07:02:37;;;;;;;108.50;57.50;;;;;;;-128.00;-1.00;-1.00;105566;1254;1059044;-78
2023/12/01 07:05:05;;;;;;;94.00;51.70;;;;;;;-128.00;-1.00;-1.00;105284;1255;1004470;-78
2023/12/01 07:07:32;;;;;;;117.60;62.10;;;;;;;-128.00;-1.00;-1.00;105494;1253;1003990;-78
2023/12/01 07:09:59;;;;;;;118.40;55.70;;;;;;;-128.00;-1.00;-1.00;105582;1254;1003547;-78
2023/12/01 07:12:26;;;;;;;98.70;52.10;;;;;;;-128.00;-1.00;-1.00;105565;1254;1005329;-78
2023/12/01 07:14:52;;;;;;;85.50;46.80;;;;;;;-128.00;-1.00;-1.00;104321;1254;1005112;-78
2023/12/01 07:17:20;;;;;;;86.70;47.60;;;;;;;-128.00;-1.00;-1.00;103415;1253;1005126;-78
2023/12/01 07:19:47;;;;;;;94.00;49.60;;;;;;;-128.00;-1.00;-1.00;103765;1254;1004763;-78
2023/12/01 07:22:14;;;;;;;94.90;51.70;;;;;;;-128.00;-1.00;-1.00;103730;1254;1004454;-78
2023/12/01 07:24:41;;;;;;;85.10;46.10;;;;;;;-128.00;-1.00;-1.00;103594;1254;1004060;-78
2023/12/01 07:27:09;;;;;;;91.40;47.90;;;;;;;-128.00;-1.00;-1.00;103722;1254;1004188;-78
2023/12/01 07:29:37;;;;;;;;;;;;;;;-128.00;-1.00;-1.00;103749;1254;1059245;-79
2023/12/01 07:32:03;;;;;;;91.10;47.50;;;;;;;-128.00;-1.00;-1.00;103622;1254;1003740;-78
2023/12/01 07:34:30;;;;;;;97.40;54.60;;;;;;;-128.00;-1.00;-1.00;103414;1254;1004343;-78
2023/12/01 07:36:57;;;;;;;93.90;55.80;;;;;;;-128.00;-1.00;-1.00;103310;1254;1005706;-79
2023/12/01 07:39:23;;;;;;;102.20;52.70;;;;;;;-128.00;-1.00;-1.00;103265;1254;1004982;-78
2023/12/01 07:41:50;;;;;;;112.60;60.00;;;;;;;-128.00;-1.00;-1.00;103432;1254;1004641;-78
2023/12/01 07:44:17;;;;;;;108.70;56.10;;;;;;;-128.00;-1.00;-1.00;103414;1254;1004996;-78
2023/12/01 07:46:44;;;;;;;109.30;54.20;;;;;;;-128.00;-1.00;-1.00;103543;1257;1004400;-78
2023/12/01 07:49:11;;;;;;;116.10;54.90;;;;;;;-128.00;-1.00;-1.00;103645;1254;1004039;-78
2023/12/01 07:51:38;;;;;;;111.50;55.10;;;;;;;-128.00;-1.00;-1.00;103485;1257;1004775;-78
2023/12/01 07:54:05;;;;;;;117.40;56.60;;;;;;;-128.00;-1.00;-1.00;103396;1254;1004518;-78
2023/12/01 07:56:32;;;;;;;104.40;53.60;;;;;;;-128.00;-1.00;-1.00;103449;1255;1004390;-79
2023/12/01 07:58:58;;;;;;;104.90;54.10;;;;;;;-128.00;-1.00;-1.00;103389;1254;1004440;-78
2023/12/01 08:01:25;;;;;;;117.20;58.50;;;;;;;-128.00;-1.00;-1.00;103516;1253;1004829;-78
2023/12/01 08:03:52;;;;;;;117.80;57.80;;;;;;;-128.00;-1.00;-1.00;103335;1253;1004531;-78
2023/12/01 08:06:18;;;;;;;115.40;61.60;;;;;;;-128.00;-1.00;-1.00;103464;1253;1005386;-78
2023/12/01 08:08:45;;;;;;;131.00;73.40;;;;;;;-128.00;-1.00;-1.00;103463;1257;1005935;-78
2023/12/01 08:11:12;;;;;;;135.70;66.20;;;;;;;-128.00;-1.00;-1.00;103452;1254;1004236;-78
2023/12/01 08:13:38;;;;;;;144.70;73.00;;;;;;;-128.00;-1.00;-1.00;103256;1254;1004922;-78
2023/12/01 08:16:06;;;;;;;168.50;77.20;;;;;;;-128.00;-1.00;-1.00;103446;1255;1003423;-78
2023/12/01 08:18:32;;;;;;;161.80;76.80;;;;;;;-128.00;-1.00;-1.00;104025;1254;1004171;-78
2023/12/01 08:20:59;;;;;;;144.30;68.30;;;;;;;-128.00;-1.00;-1.00;105508;1252;1004594;-78
2023/12/01 08:23:25;;;;;;;140.80;65.90;;;;;;;-128.00;-1.00;-1.00;105554;1254;1004243;-78
2023/12/01 08:25:52;;;;;;;113.30;55.30;;;;;;;-128.00;-1.00;-1.00;105575;1254;1003798;-78
2023/12/01 08:28:18;;;;;;;102.00;50.10;;;;;;;-128.00;-1.00;-1.00;105548;1254;1004558;-78
2023/12/01 08:30:45;;;;;;;120.10;56.70;;;;;;;-128.00;-1.00;-1.00;105503;1254;1004871;-78
2023/12/01 08:33:12;;;;;;;105.90;55.40;;;;;;;-128.00;-1.00;-1.00;105445;1254;1004725;-78
2023/12/01 08:35:39;;;;;;;113.90;53.00;;;;;;;-128.00;-1.00;-1.00;105514;1254;1004048;-78
2023/12/01 08:38:05;;;;;;;103.70;49.80;;;;;;;-128.00;-1.00;-1.00;105526;1253;1004698;-78
2023/12/01 08:40:32;;;;;;;102.20;47.90;;;;;;;-128.00;-1.00;-1.00;105513;1254;1003616;-78
2023/12/01 08:42:58;;;;;;;103.70;50.20;;;;;;;-128.00;-1.00;-1.00;105499;1253;1004259;-79
2023/12/01 08:45:25;;;;;;;105.20;55.00;;;;;;;-128.00;-1.00;-1.00;105577;1254;1004016;-79
2023/12/01 08:47:52;;;;;;;140.60;64.60;;;;;;;-128.00;-1.00;-1.00;105560;1254;1005062;-78
2023/12/01 08:50:19;;;;;;;122.20;65.10;;;;;;;-128.00;-1.00;-1.00;105294;1254;1004017;-78
2023/12/01 08:52:47;;;;;;;114.30;59.60;;;;;;;-128.00;-1.00;-1.00;105522;1254;1005736;-78
2023/12/01 08:55:13;;;;;;;114.30;59.90;;;;;;;-128.00;-1.00;-1.00;105503;1254;1004159;-78
2023/12/01 08:57:40;;;;;;;96.40;53.90;;;;;;;-128.00;-1.00;-1.00;105486;1254;1004325;-78
2023/12/01 09:00:07;;;;;;;106.10;55.60;;;;;;;-128.00;-1.00;-1.00;105513;1254;1004415;-80
2023/12/01 09:02:34;;;;;;;85.50;45.60;;;;;;;-128.00;-1.00;-1.00;105505;1254;1004685;-78
2023/12/01 09:05:02;;;;;;;87.80;49.10;;;;;;;-128.00;-1.00;-1.00;105527;1254;1005103;-78
2023/12/01 09:07:29;;;;;;;97.50;51.90;;;;;;;-128.00;-1.00;-1.00;105502;1253;1004489;-78
2023/12/01 09:09:58;;;;;;;108.10;57.50;;;;;;;-128.00;-1.00;-1.00;105527;1254;1004873;-78
2023/12/01 09:12:24;;;;;;;;;;;;;;;-128.00;-1.00;-1.00;105573;1253;1046789;-78
2023/12/01 09:14:52;;;;;;;94.70;44.50;;;;;;;-128.00;-1.00;-1.00;105523;1253;1003458;-78
2023/12/01 09:17:18;;;;;;;77.00;41.10;;;;;;;-128.00;-1.00;-1.00;105504;1254;1004096;-78
2023/12/01 09:19:45;;;;;;;85.90;40.60;;;;;;;-128.00;-1.00;-1.00;105428;1253;1004382;-78
2023/12/01 09:22:11;;;;;;;80.50;42.80;;;;;;;-128.00;-1.00;-1.00;105484;1253;1004309;-79
2023/12/01 09:24:38;;;;;;;84.30;41.70;;;;;;;-128.00;-1.00;-1.00;105521;1253;1005020;-79
2023/12/01 09:27:05;;;;;;;91.70;50.60;;;;;;;-128.00;-1.00;-1.00;105556;1252;1005047;-78
2023/12/01 09:29:31;;;;;;;92.20;48.90;;;;;;;-128.00;-1.00;-1.00;105409;1254;1004538;-78
2023/12/01 09:31:58;;;;;;;76.20;40.50;;;;;;;-128.00;-1.00;-1.00;105523;1253;1003801;-78
2023/12/01 09:34:24;;;;;;;79.70;44.80;;;;;;;-128.00;-1.00;-1.00;105472;1254;1004757;-78
2023/12/01 09:36:51;;;;;;;75.80;42.20;;;;;;;-128.00;-1.00;-1.00;105532;1253;1006402;-78
2023/12/01 09:39:18;;;;;;;76.10;42.90;;;;;;;-128.00;-1.00;-1.00;105472;1253;1003720;-78
2023/12/01 09:41:44;;;;;;;79.20;40.00;;;;;;;-128.00;-1.00;-1.00;105538;1253;1003657;-78
2023/12/01 09:44:11;;;;;;;86.30;49.90;;;;;;;-128.00;-1.00;-1.00;105533;1253;1004133;-78
2023/12/01 09:46:39;;;;;;;117.90;49.60;;;;;;;-128.00;-1.00;-1.00;105468;1253;1005117;-78
2023/12/01 09:49:05;;;;;;;144.90;62.60;;;;;;;-128.00;-1.00;-1.00;105484;1254;1004488;-78
2023/12/01 09:51:34;;;;;;;86.10;47.30;;;;;;;-128.00;-1.00;-1.00;105558;1254;1004017;-78
2023/12/01 09:54:02;;;;;;;69.20;38.50;;;;;;;-128.00;-1.00;-1.00;105544;1253;1057659;-78
2023/12/01 09:56:29;;;;;;;74.50;40.60;;;;;;;-128.00;-1.00;-1.00;105524;1254;1004283;-79
2023/12/01 09:58:56;;;;;;;72.10;45.70;;;;;;;-128.00;-1.00;-1.00;105591;1253;1004821;-78
2023/12/01 10:01:26;;;;;;;72.20;41.90;;;;;;;-128.00;-1.00;-1.00;105573;1254;1004479;-78
2023/12/01 10:03:52;;;;;;;78.40;39.10;;;;;;;-128.00;-1.00;-1.00;105473;1253;1062471;-78
2023/12/01 10:06:19;;;;;;;78.80;41.90;;;;;;;-128.00;-1.00;-1.00;105431;1253;1003607;-78
2023/12/01 10:08:49;;;;;;;94.30;48.20;;;;;;;-128.00;-1.00;-1.00;105413;1253;1004655;-78
2023/12/01 10:11:25;;;;;;;92.30;45.10;;;;;;;-128.00;-1.00;-1.00;105533;1253;1045861;-78
2023/12/01 10:13:52;;;;;;;66.10;36.00;;;;;;;-128.00;-1.00;-1.00;105548;1253;1047227;-79
2023/12/01 10:16:19;;;;;;;71.30;35.90;;;;;;;-128.00;-1.00;-1.00;105540;1253;1003210;-78
2023/12/01 10:19:04;;;;;;;66.40;36.40;;;;;;;-128.00;-1.00;-1.00;105515;1253;1004859;-78
2023/12/01 10:21:40;;;;;;;55.90;32.90;;;;;;;-128.00;-1.00;-1.00;105577;1253;1059468;-78
2023/12/01 10:24:20;;;;;;;60.40;30.50;;;;;;;-128.00;-1.00;-1.00;105311;1253;1044613;-78
2023/12/01 10:26:52;;;;;;;51.00;30.10;;;;;;;-128.00;-1.00;-1.00;105487;1254;1047452;-78
2023/12/01 10:29:35;;;;;;;56.00;32.00;;;;;;;-128.00;-1.00;-1.00;105276;1254;1062782;-78
2023/12/01 10:32:07;;;;;;;53.40;30.80;;;;;;;-128.00;-1.00;-1.00;105537;1253;1058567;-78
2023/12/01 10:34:33;;;;;;;64.80;34.80;;;;;;;-128.00;-1.00;-1.00;105540;1253;1059508;-78
2023/12/01 10:37:00;;;;;;;56.90;34.20;;;;;;;-128.00;-1.00;-1.00;105539;1253;1003491;-78
2023/12/01 10:39:27;;;;;;;49.80;29.80;;;;;;;-128.00;-1.00;-1.00;105427;1253;1004035;-78
2023/12/01 10:41:55;;;;;;;52.10;30.90;;;;;;;-128.00;-1.00;-1.00;105367;1253;1005163;-78
2023/12/01 10:44:24;;;;;;;53.40;31.30;;;;;;;-128.00;-1.00;-1.00;105505;1253;1004205;-78
2023/12/01 10:46:54;;;;;;;75.20;35.00;;;;;;;-128.00;-1.00;-1.00;103340;1259;1059345;-78
2023/12/01 10:49:21;;;;;;;70.70;38.90;;;;;;;-128.00;-1.00;-1.00;103508;1253;1045415;-78
2023/12/01 10:51:55;;;;;;;65.60;36.20;;;;;;;-128.00;-1.00;-1.00;103887;1253;1003778;-78
2023/12/01 10:54:26;;;;;;;81.10;40.50;;;;;;;-128.00;-1.00;-1.00;103130;1253;1062602;-78
2023/12/01 10:57:20;;;;;;;63.40;34.90;;;;;;;-128.00;-1.00;-1.00;103108;1253;1059022;-78
2023/12/01 10:59:51;;;;;;;53.30;29.80;;;;;;;-128.00;-1.00;-1.00;103315;1254;1059532;-78
2023/12/01 11:02:17;;;;;;;55.90;31.00;;;;;;;-128.00;-1.00;-1.00;103074;1253;1045750;-78